PWSweather.com
Personal Weather Stations
Station Observations
WD4JKH
Forsyth, GA 31029

Forsyth, GA 31029

Lat: 33.033225, Lon: -83.927995

Elevation: 709

Station Type: Davis Vantage VUE

High Low Average
Temperature 88.1°F31.2°C 68.3°F20.2°C 74.6°F23.7°C
Dew Point 77.2°F25.1°C 66.1°F18.9°C 70.5°F21.4°C
Winds 7.5 mph 12.1 kmh Calm Calm 2.0 mph SW3.2 kmh SW
Wind Gusts 23.0 mph37.0 kmh 1.0 mph1.6 kmh 7.0 mph11.3 kmh
Humidity 96% 65% 87%
Pressure 30.08 in1018.6 mb 29.99 in1015.6 mb -
Precipitation 0.05 in1.3 mm - -
Hour Temp Dew Point Humidity Winds Wind Gusts Pressure Precip Precip Rate Daily Precip Total
12:04 AM 69.7°F20.9°C 67.6°F19.8°C 93% 1.9 mph S3.1 kmh S 4.0 mph6.4 kmh 30.06 in1017.9 mb 0.00 in0.0 mm 0.00 in0.0 mm 0.00 in0.0 mm
12:09 AM 69.6°F20.9°C 67.5°F19.7°C 93% 1.7 mph SW2.7 kmh SW 5.0 mph8.0 kmh 30.07 in1018.3 mb 0.00 in0.0 mm 0.00 in0.0 mm 0.00 in0.0 mm
12:14 AM 69.6°F20.9°C 67.5°F19.7°C 93% 3.6 mph SW5.8 kmh SW 8.0 mph12.9 kmh 30.08 in1018.6 mb 0.00 in0.0 mm 0.00 in0.0 mm 0.00 in0.0 mm
12:19 AM 69.5°F20.8°C 67.4°F19.7°C 93% 2.1 mph SW3.4 kmh SW 8.0 mph12.9 kmh 30.08 in1018.6 mb 0.00 in0.0 mm 0.00 in0.0 mm 0.00 in0.0 mm
12:24 AM 69.4°F20.8°C 67.3°F19.6°C 93% 1.5 mph WSW2.4 kmh WSW 8.0 mph12.9 kmh 30.07 in1018.3 mb 0.00 in0.0 mm 0.00 in0.0 mm 0.00 in0.0 mm
12:29 AM 69.4°F20.8°C 67.3°F19.6°C 93% 1.0 mph SE1.6 kmh SE 8.0 mph12.9 kmh 30.06 in1017.9 mb 0.00 in0.0 mm 0.00 in0.0 mm 0.00 in0.0 mm
12:34 AM 69.4°F20.8°C 67.3°F19.6°C 93% 1.8 mph SW2.9 kmh SW 6.0 mph9.7 kmh 30.07 in1018.3 mb 0.00 in0.0 mm 0.00 in0.0 mm 0.00 in0.0 mm
12:39 AM 69.4°F20.8°C 67.3°F19.6°C 93% 3.0 mph SW4.8 kmh SW 7.0 mph11.3 kmh 30.06 in1017.9 mb 0.00 in0.0 mm 0.00 in0.0 mm 0.00 in0.0 mm
12:44 AM 69.5°F20.8°C 67.4°F19.7°C 93% 2.1 mph SW3.4 kmh SW 7.0 mph11.3 kmh 30.05 in1017.6 mb 0.00 in0.0 mm 0.00 in0.0 mm 0.00 in0.0 mm
12:49 AM 69.5°F20.8°C 67.4°F19.7°C 93% 2.4 mph SW3.9 kmh SW 9.0 mph14.5 kmh 30.05 in1017.6 mb 0.00 in0.0 mm 0.00 in0.0 mm 0.00 in0.0 mm
12:54 AM 69.5°F20.8°C 67.4°F19.7°C 93% 2.3 mph SW3.7 kmh SW 9.0 mph14.5 kmh 30.05 in1017.6 mb 0.00 in0.0 mm 0.00 in0.0 mm 0.00 in0.0 mm
12:59 AM 69.4°F20.8°C 66.9°F19.4°C 92% 2.9 mph SSW4.7 kmh SSW 9.0 mph14.5 kmh 30.05 in1017.6 mb 0.00 in0.0 mm 0.00 in0.0 mm 0.00 in0.0 mm
01:04 AM 69.4°F20.8°C 66.9°F19.4°C 92% 1.7 mph SW2.7 kmh SW 9.0 mph14.5 kmh 30.05 in1017.6 mb 0.00 in0.0 mm 0.00 in0.0 mm 0.00 in0.0 mm
01:09 AM 69.4°F20.8°C 66.9°F19.4°C 92% 3.3 mph SW5.3 kmh SW 8.0 mph12.9 kmh 30.05 in1017.6 mb 0.00 in0.0 mm 0.00 in0.0 mm 0.00 in0.0 mm
01:14 AM 69.3°F20.7°C 66.8°F19.3°C 92% 2.6 mph SW4.2 kmh SW 8.0 mph12.9 kmh 30.04 in1017.3 mb 0.00 in0.0 mm 0.00 in0.0 mm 0.00 in0.0 mm
01:19 AM 69.3°F20.7°C 66.8°F19.3°C 92% 2.1 mph SW3.4 kmh SW 8.0 mph12.9 kmh 30.04 in1017.3 mb 0.00 in0.0 mm 0.00 in0.0 mm 0.00 in0.0 mm
01:24 AM 69.3°F20.7°C 66.8°F19.3°C 92% 2.9 mph SW4.7 kmh SW 8.0 mph12.9 kmh 30.03 in1016.9 mb 0.00 in0.0 mm 0.00 in0.0 mm 0.00 in0.0 mm
01:29 AM 69.2°F20.7°C 67.1°F19.5°C 93% 1.8 mph S2.9 kmh S 8.0 mph12.9 kmh 30.02 in1016.6 mb 0.00 in0.0 mm 0.00 in0.0 mm 0.00 in0.0 mm
01:34 AM 69.1°F20.6°C 67.0°F19.4°C 93% 1.9 mph SW3.1 kmh SW 8.0 mph12.9 kmh 30.02 in1016.6 mb 0.00 in0.0 mm 0.00 in0.0 mm 0.00 in0.0 mm
01:39 AM 69.0°F20.6°C 66.9°F19.4°C 93% 1.1 mph SSE1.8 kmh SSE 6.0 mph9.7 kmh 30.01 in1016.3 mb 0.00 in0.0 mm 0.00 in0.0 mm 0.00 in0.0 mm
01:44 AM 69.0°F20.6°C 67.2°F19.6°C 94% 2.6 mph SE4.2 kmh SE 6.0 mph9.7 kmh 30.00 in1015.9 mb 0.00 in0.0 mm 0.00 in0.0 mm 0.00 in0.0 mm
01:49 AM 68.9°F20.5°C 67.1°F19.5°C 94% 1.0 mph S1.6 kmh S 6.0 mph9.7 kmh 30.00 in1015.9 mb 0.00 in0.0 mm 0.00 in0.0 mm 0.00 in0.0 mm
01:54 AM 68.9°F20.5°C 67.1°F19.5°C 94% 1.7 mph SE2.7 kmh SE 5.0 mph8.0 kmh 30.00 in1015.9 mb 0.00 in0.0 mm 0.00 in0.0 mm 0.00 in0.0 mm
01:59 AM 68.8°F20.4°C 67.0°F19.4°C 94% 2.5 mph SW4.0 kmh SW 5.0 mph8.0 kmh 30.01 in1016.3 mb 0.00 in0.0 mm 0.00 in0.0 mm 0.00 in0.0 mm
02:04 AM 68.7°F20.4°C 67.2°F19.6°C 95% 2.3 mph SW3.7 kmh SW 6.0 mph9.7 kmh 30.01 in1016.3 mb 0.00 in0.0 mm 0.00 in0.0 mm 0.00 in0.0 mm
02:09 AM 68.6°F20.3°C 67.1°F19.5°C 95% 3.0 mph SW4.8 kmh SW 9.0 mph14.5 kmh 30.00 in1015.9 mb 0.00 in0.0 mm 0.00 in0.0 mm 0.00 in0.0 mm
02:14 AM 68.5°F20.3°C 67.0°F19.4°C 95% 2.2 mph SW3.5 kmh SW 9.0 mph14.5 kmh 30.01 in1016.3 mb 0.00 in0.0 mm 0.00 in0.0 mm 0.00 in0.0 mm
02:19 AM 68.4°F20.2°C 66.9°F19.4°C 95% 4.1 mph SW6.6 kmh SW 9.0 mph14.5 kmh 30.01 in1016.3 mb 0.00 in0.0 mm 0.00 in0.0 mm 0.00 in0.0 mm
02:24 AM 68.4°F20.2°C 67.2°F19.6°C 96% 3.0 mph SW4.8 kmh SW 9.0 mph14.5 kmh 30.01 in1016.3 mb 0.00 in0.0 mm 0.00 in0.0 mm 0.00 in0.0 mm
02:29 AM 68.3°F20.2°C 67.1°F19.5°C 96% 2.4 mph SW3.9 kmh SW 9.0 mph14.5 kmh 30.01 in1016.3 mb 0.00 in0.0 mm 0.00 in0.0 mm 0.00 in0.0 mm
02:34 AM 68.3°F20.2°C 67.1°F19.5°C 96% 1.9 mph SW3.1 kmh SW 11.0 mph17.7 kmh 30.01 in1016.3 mb 0.00 in0.0 mm 0.00 in0.0 mm 0.00 in0.0 mm
02:39 AM 68.3°F20.2°C 67.1°F19.5°C 96% 3.2 mph WSW5.1 kmh WSW 11.0 mph17.7 kmh 30.01 in1016.3 mb 0.00 in0.0 mm 0.00 in0.0 mm 0.00 in0.0 mm
02:44 AM 68.3°F20.2°C 67.1°F19.5°C 96% 4.1 mph SW6.6 kmh SW 11.0 mph17.7 kmh 30.02 in1016.6 mb 0.00 in0.0 mm 0.00 in0.0 mm 0.00 in0.0 mm
02:49 AM 68.3°F20.2°C 67.1°F19.5°C 96% 2.3 mph SW3.7 kmh SW 11.0 mph17.7 kmh 30.02 in1016.6 mb 0.00 in0.0 mm 0.00 in0.0 mm 0.00 in0.0 mm
02:54 AM 68.3°F20.2°C 67.1°F19.5°C 96% 2.5 mph SW4.0 kmh SW 10.0 mph16.1 kmh 30.02 in1016.6 mb 0.00 in0.0 mm 0.00 in0.0 mm 0.00 in0.0 mm
02:59 AM 68.4°F20.2°C 67.2°F19.6°C 96% 2.4 mph SW3.9 kmh SW 10.0 mph16.1 kmh 30.02 in1016.6 mb 0.00 in0.0 mm 0.00 in0.0 mm 0.00 in0.0 mm
03:04 AM 68.4°F20.2°C 67.2°F19.6°C 96% 2.4 mph SW3.9 kmh SW 10.0 mph16.1 kmh 30.02 in1016.6 mb 0.00 in0.0 mm 0.00 in0.0 mm 0.00 in0.0 mm
03:09 AM 68.4°F20.2°C 67.2°F19.6°C 96% 2.4 mph SW3.9 kmh SW 10.0 mph16.1 kmh 30.01 in1016.3 mb 0.00 in0.0 mm 0.00 in0.0 mm 0.00 in0.0 mm
03:14 AM 68.4°F20.2°C 66.9°F19.4°C 95% 2.7 mph WSW4.3 kmh WSW 8.0 mph12.9 kmh 30.01 in1016.3 mb 0.00 in0.0 mm 0.00 in0.0 mm 0.00 in0.0 mm
03:19 AM 68.4°F20.2°C 66.9°F19.4°C 95% 1.9 mph WSW3.1 kmh WSW 8.0 mph12.9 kmh 30.02 in1016.6 mb 0.00 in0.0 mm 0.00 in0.0 mm 0.00 in0.0 mm
03:24 AM 68.5°F20.3°C 67.0°F19.4°C 95% 3.6 mph WSW5.8 kmh WSW 10.0 mph16.1 kmh 30.01 in1016.3 mb 0.00 in0.0 mm 0.00 in0.0 mm 0.00 in0.0 mm
03:29 AM 68.6°F20.3°C 67.1°F19.5°C 95% 3.3 mph SW5.3 kmh SW 10.0 mph16.1 kmh 30.01 in1016.3 mb 0.00 in0.0 mm 0.00 in0.0 mm 0.00 in0.0 mm
03:34 AM 68.6°F20.3°C 67.1°F19.5°C 95% 2.4 mph SW3.9 kmh SW 10.0 mph16.1 kmh 30.01 in1016.3 mb 0.00 in0.0 mm 0.00 in0.0 mm 0.00 in0.0 mm
03:39 AM 68.6°F20.3°C 67.1°F19.5°C 95% 2.2 mph SW3.5 kmh SW 10.0 mph16.1 kmh 30.00 in1015.9 mb 0.00 in0.0 mm 0.00 in0.0 mm 0.00 in0.0 mm
03:44 AM 68.6°F20.3°C 66.8°F19.3°C 94% 3.3 mph SW5.3 kmh SW 8.0 mph12.9 kmh 30.00 in1015.9 mb 0.00 in0.0 mm 0.00 in0.0 mm 0.00 in0.0 mm
03:49 AM 68.7°F20.4°C 66.9°F19.4°C 94% 2.0 mph WSW3.2 kmh WSW 9.0 mph14.5 kmh 30.00 in1015.9 mb 0.00 in0.0 mm 0.00 in0.0 mm 0.00 in0.0 mm
03:54 AM 68.6°F20.3°C 66.8°F19.3°C 94% 2.6 mph W4.2 kmh W 9.0 mph14.5 kmh 30.01 in1016.3 mb 0.00 in0.0 mm 0.00 in0.0 mm 0.00 in0.0 mm
03:59 AM 68.7°F20.4°C 66.9°F19.4°C 94% 2.0 mph W3.2 kmh W 9.0 mph14.5 kmh 30.01 in1016.3 mb 0.00 in0.0 mm 0.00 in0.0 mm 0.00 in0.0 mm
04:04 AM 68.7°F20.4°C 66.9°F19.4°C 94% 2.0 mph W3.2 kmh W 9.0 mph14.5 kmh 30.01 in1016.3 mb 0.00 in0.0 mm 0.00 in0.0 mm 0.00 in0.0 mm
04:09 AM 68.7°F20.4°C 66.9°F19.4°C 94% 3.0 mph W4.8 kmh W 8.0 mph12.9 kmh 30.01 in1016.3 mb 0.00 in0.0 mm 0.00 in0.0 mm 0.00 in0.0 mm
04:14 AM 68.7°F20.4°C 66.9°F19.4°C 94% 1.6 mph WSW2.6 kmh WSW 8.0 mph12.9 kmh 30.01 in1016.3 mb 0.00 in0.0 mm 0.00 in0.0 mm 0.00 in0.0 mm
04:19 AM 68.7°F20.4°C 66.9°F19.4°C 94% 2.7 mph WSW4.3 kmh WSW 8.0 mph12.9 kmh 30.01 in1016.3 mb 0.00 in0.0 mm 0.00 in0.0 mm 0.00 in0.0 mm
04:23 AM 68.7°F20.4°C 66.6°F19.2°C 93% 1.6 mph WSW2.6 kmh WSW 8.0 mph12.9 kmh 30.01 in1016.3 mb 0.00 in0.0 mm 0.00 in0.0 mm 0.00 in0.0 mm
04:28 AM 68.7°F20.4°C 66.6°F19.2°C 93% 1.9 mph WSW3.1 kmh WSW 7.0 mph11.3 kmh 30.01 in1016.3 mb 0.00 in0.0 mm 0.00 in0.0 mm 0.00 in0.0 mm
04:33 AM 68.8°F20.4°C 66.7°F19.3°C 93% 2.4 mph WSW3.9 kmh WSW 7.0 mph11.3 kmh 30.01 in1016.3 mb 0.00 in0.0 mm 0.00 in0.0 mm 0.00 in0.0 mm
04:38 AM 68.8°F20.4°C 66.7°F19.3°C 93% 1.9 mph WSW3.1 kmh WSW 5.0 mph8.0 kmh 30.01 in1016.3 mb 0.00 in0.0 mm 0.00 in0.0 mm 0.00 in0.0 mm
04:43 AM 68.8°F20.4°C 66.7°F19.3°C 93% 1.4 mph SW2.3 kmh SW 5.0 mph8.0 kmh 30.01 in1016.3 mb 0.00 in0.0 mm 0.00 in0.0 mm 0.00 in0.0 mm
04:48 AM 68.8°F20.4°C 66.7°F19.3°C 93% 2.3 mph SW3.7 kmh SW 5.0 mph8.0 kmh 30.02 in1016.6 mb 0.00 in0.0 mm 0.00 in0.0 mm 0.00 in0.0 mm
04:53 AM 68.8°F20.4°C 66.7°F19.3°C 93% 2.4 mph SW3.9 kmh SW 6.0 mph9.7 kmh 30.02 in1016.6 mb 0.00 in0.0 mm 0.00 in0.0 mm 0.00 in0.0 mm
04:58 AM 68.8°F20.4°C 66.7°F19.3°C 93% 1.2 mph WSW1.9 kmh WSW 6.0 mph9.7 kmh 30.02 in1016.6 mb 0.00 in0.0 mm 0.00 in0.0 mm 0.00 in0.0 mm
05:03 AM 68.7°F20.4°C 66.6°F19.2°C 93% 1.7 mph WSW2.7 kmh WSW 6.0 mph9.7 kmh 30.02 in1016.6 mb 0.00 in0.0 mm 0.00 in0.0 mm 0.00 in0.0 mm
05:08 AM 68.7°F20.4°C 66.6°F19.2°C 93% 1.0 mph WSW1.6 kmh WSW 6.0 mph9.7 kmh 30.02 in1016.6 mb 0.00 in0.0 mm 0.00 in0.0 mm 0.00 in0.0 mm
05:13 AM 68.7°F20.4°C 66.6°F19.2°C 93% 1.4 mph WSW2.3 kmh WSW 4.0 mph6.4 kmh 30.03 in1016.9 mb 0.00 in0.0 mm 0.00 in0.0 mm 0.00 in0.0 mm
05:18 AM 68.7°F20.4°C 66.6°F19.2°C 93% 1.4 mph WSW2.3 kmh WSW 4.0 mph6.4 kmh 30.02 in1016.6 mb 0.00 in0.0 mm 0.00 in0.0 mm 0.00 in0.0 mm
05:23 AM 68.6°F20.3°C 66.5°F19.2°C 93% 1.5 mph WSW2.4 kmh WSW 4.0 mph6.4 kmh 30.03 in1016.9 mb 0.00 in0.0 mm 0.00 in0.0 mm 0.00 in0.0 mm
05:28 AM 68.6°F20.3°C 66.5°F19.2°C 93% 1.6 mph W2.6 kmh W 4.0 mph6.4 kmh 30.02 in1016.6 mb 0.00 in0.0 mm 0.00 in0.0 mm 0.00 in0.0 mm
05:33 AM 68.6°F20.3°C 66.5°F19.2°C 93% 1.4 mph W2.3 kmh W 5.0 mph8.0 kmh 30.02 in1016.6 mb 0.00 in0.0 mm 0.00 in0.0 mm 0.00 in0.0 mm
05:38 AM 68.7°F20.4°C 66.6°F19.2°C 93% 1.3 mph W2.1 kmh W 5.0 mph8.0 kmh 30.03 in1016.9 mb 0.00 in0.0 mm 0.00 in0.0 mm 0.00 in0.0 mm
05:43 AM 68.7°F20.4°C 66.3°F19.1°C 92% 1.4 mph W2.3 kmh W 5.0 mph8.0 kmh 30.03 in1016.9 mb 0.00 in0.0 mm 0.00 in0.0 mm 0.00 in0.0 mm
05:48 AM 68.7°F20.4°C 66.3°F19.1°C 92% 2.2 mph W3.5 kmh W 6.0 mph9.7 kmh 30.03 in1016.9 mb 0.00 in0.0 mm 0.00 in0.0 mm 0.00 in0.0 mm
05:53 AM 68.8°F20.4°C 66.4°F19.1°C 92% 2.3 mph W3.7 kmh W 8.0 mph12.9 kmh 30.03 in1016.9 mb 0.00 in0.0 mm 0.00 in0.0 mm 0.00 in0.0 mm
05:58 AM 68.9°F20.5°C 66.5°F19.2°C 92% 2.9 mph WSW4.7 kmh WSW 8.0 mph12.9 kmh 30.03 in1016.9 mb 0.00 in0.0 mm 0.00 in0.0 mm 0.00 in0.0 mm
06:03 AM 68.9°F20.5°C 66.5°F19.2°C 92% 2.6 mph W4.2 kmh W 8.0 mph12.9 kmh 30.04 in1017.3 mb 0.00 in0.0 mm 0.00 in0.0 mm 0.00 in0.0 mm
06:08 AM 68.9°F20.5°C 66.2°F19.0°C 91% 2.6 mph W4.2 kmh W 8.0 mph12.9 kmh 30.04 in1017.3 mb 0.00 in0.0 mm 0.00 in0.0 mm 0.00 in0.0 mm
06:13 AM 69.0°F20.6°C 66.3°F19.1°C 91% 2.3 mph WSW3.7 kmh WSW 8.0 mph12.9 kmh 30.04 in1017.3 mb 0.00 in0.0 mm 0.00 in0.0 mm 0.00 in0.0 mm
06:18 AM 69.0°F20.6°C 66.3°F19.1°C 91% 1.5 mph WNW2.4 kmh WNW 7.0 mph11.3 kmh 30.04 in1017.3 mb 0.00 in0.0 mm 0.00 in0.0 mm 0.00 in0.0 mm
06:23 AM 68.9°F20.5°C 66.1°F18.9°C 91% 1.3 mph W2.1 kmh W 7.0 mph11.3 kmh 30.05 in1017.6 mb 0.00 in0.0 mm 0.00 in0.0 mm 0.00 in0.0 mm
06:28 AM 68.8°F20.4°C 66.4°F19.1°C 92% 1.5 mph WSW2.4 kmh WSW 7.0 mph11.3 kmh 30.05 in1017.6 mb 0.00 in0.0 mm 0.00 in0.0 mm 0.00 in0.0 mm
06:33 AM 68.8°F20.4°C 66.4°F19.1°C 92% 2.0 mph WNW3.2 kmh WNW 5.0 mph8.0 kmh 30.05 in1017.6 mb 0.00 in0.0 mm 0.00 in0.0 mm 0.00 in0.0 mm
06:38 AM 68.7°F20.4°C 66.3°F19.1°C 92% 1.9 mph WSW3.1 kmh WSW 5.0 mph8.0 kmh 30.05 in1017.6 mb 0.00 in0.0 mm 0.00 in0.0 mm 0.00 in0.0 mm
06:43 AM 68.7°F20.4°C 66.3°F19.1°C 92% 1.0 mph W1.6 kmh W 5.0 mph8.0 kmh 30.05 in1017.6 mb 0.00 in0.0 mm 0.00 in0.0 mm 0.00 in0.0 mm
06:48 AM 68.7°F20.4°C 66.3°F19.1°C 92% 2.2 mph WNW3.5 kmh WNW 4.0 mph6.4 kmh 30.06 in1017.9 mb 0.00 in0.0 mm 0.00 in0.0 mm 0.00 in0.0 mm
06:53 AM 68.8°F20.4°C 66.4°F19.1°C 92% 1.2 mph W1.9 kmh W 3.0 mph4.8 kmh 30.06 in1017.9 mb 0.00 in0.0 mm 0.00 in0.0 mm 0.00 in0.0 mm
06:58 AM 68.8°F20.4°C 66.4°F19.1°C 92% 1.4 mph W2.3 kmh W 3.0 mph4.8 kmh 30.06 in1017.9 mb 0.00 in0.0 mm 0.00 in0.0 mm 0.00 in0.0 mm
07:03 AM 68.9°F20.5°C 66.5°F19.2°C 92% 2.1 mph WSW3.4 kmh WSW 3.0 mph4.8 kmh 30.06 in1017.9 mb 0.00 in0.0 mm 0.00 in0.0 mm 0.00 in0.0 mm
07:08 AM 69.0°F20.6°C 66.6°F19.2°C 92% 1.1 mph W1.8 kmh W 3.0 mph4.8 kmh 30.06 in1017.9 mb 0.00 in0.0 mm 0.00 in0.0 mm 0.00 in0.0 mm
07:13 AM 69.2°F20.7°C 66.7°F19.3°C 92% 1.8 mph WSW2.9 kmh WSW 3.0 mph4.8 kmh 30.06 in1017.9 mb 0.00 in0.0 mm 0.00 in0.0 mm 0.00 in0.0 mm
07:18 AM 69.2°F20.7°C 66.7°F19.3°C 92% 2.0 mph W3.2 kmh W 5.0 mph8.0 kmh 30.06 in1017.9 mb 0.00 in0.0 mm 0.00 in0.0 mm 0.00 in0.0 mm
07:23 AM 69.4°F20.8°C 66.9°F19.4°C 92% 1.2 mph W1.9 kmh W 5.0 mph8.0 kmh 30.06 in1017.9 mb 0.00 in0.0 mm 0.00 in0.0 mm 0.00 in0.0 mm
07:28 AM 69.4°F20.8°C 66.9°F19.4°C 92% 1.6 mph WSW2.6 kmh WSW 5.0 mph8.0 kmh 30.06 in1017.9 mb 0.00 in0.0 mm 0.00 in0.0 mm 0.00 in0.0 mm
07:33 AM 69.5°F20.8°C 67.0°F19.4°C 92% 1.4 mph W2.3 kmh W 5.0 mph8.0 kmh 30.06 in1017.9 mb 0.00 in0.0 mm 0.00 in0.0 mm 0.00 in0.0 mm
07:38 AM 69.6°F20.9°C 67.1°F19.5°C 92% 1.7 mph W2.7 kmh W 7.0 mph11.3 kmh 30.06 in1017.9 mb 0.00 in0.0 mm 0.00 in0.0 mm 0.00 in0.0 mm
07:43 AM 69.7°F20.9°C 67.2°F19.6°C 92% 1.4 mph WSW2.3 kmh WSW 7.0 mph11.3 kmh 30.06 in1017.9 mb 0.00 in0.0 mm 0.00 in0.0 mm 0.00 in0.0 mm
07:48 AM 69.9°F21.1°C 67.2°F19.6°C 91% 3.9 mph WSW6.3 kmh WSW 8.0 mph12.9 kmh 30.07 in1018.3 mb 0.00 in0.0 mm 0.00 in0.0 mm 0.00 in0.0 mm
07:53 AM 70.2°F21.2°C 67.4°F19.7°C 91% 1.0 mph SW1.6 kmh SW 8.0 mph12.9 kmh 30.07 in1018.3 mb 0.00 in0.0 mm 0.00 in0.0 mm 0.00 in0.0 mm
07:58 AM 70.6°F21.4°C 67.8°F19.9°C 91% 1.4 mph NW2.3 kmh NW 8.0 mph12.9 kmh 30.07 in1018.3 mb 0.00 in0.0 mm 0.00 in0.0 mm 0.00 in0.0 mm
08:03 AM 70.9°F21.6°C 67.8°F19.9°C 90% 1.7 mph WNW2.7 kmh WNW 8.0 mph12.9 kmh 30.07 in1018.3 mb 0.00 in0.0 mm 0.00 in0.0 mm 0.00 in0.0 mm
08:08 AM 71.2°F21.8°C 68.1°F20.1°C 90% 2.3 mph WNW3.7 kmh WNW 5.0 mph8.0 kmh 30.07 in1018.3 mb 0.00 in0.0 mm 0.00 in0.0 mm 0.00 in0.0 mm
08:13 AM 71.6°F22.0°C 68.5°F20.3°C 90% 2.5 mph W4.0 kmh W 6.0 mph9.7 kmh 30.07 in1018.3 mb 0.00 in0.0 mm 0.00 in0.0 mm 0.00 in0.0 mm
08:18 AM 71.8°F22.1°C 68.4°F20.2°C 89% 2.2 mph W3.5 kmh W 7.0 mph11.3 kmh 30.07 in1018.3 mb 0.00 in0.0 mm 0.00 in0.0 mm 0.00 in0.0 mm
08:23 AM 72.1°F22.3°C 68.7°F20.4°C 89% 2.5 mph WNW4.0 kmh WNW 7.0 mph11.3 kmh 30.07 in1018.3 mb 0.00 in0.0 mm 0.00 in0.0 mm 0.00 in0.0 mm
08:28 AM 72.4°F22.4°C 69.0°F20.6°C 89% 3.5 mph W5.6 kmh W 8.0 mph12.9 kmh 30.07 in1018.3 mb 0.00 in0.0 mm 0.00 in0.0 mm 0.00 in0.0 mm
08:33 AM 72.8°F22.7°C 69.0°F20.6°C 88% 3.1 mph WSW5.0 kmh WSW 8.0 mph12.9 kmh 30.07 in1018.3 mb 0.00 in0.0 mm 0.00 in0.0 mm 0.00 in0.0 mm
08:38 AM 73.3°F22.9°C 69.5°F20.8°C 88% 3.5 mph WNW5.6 kmh WNW 8.0 mph12.9 kmh 30.07 in1018.3 mb 0.00 in0.0 mm 0.00 in0.0 mm 0.00 in0.0 mm
08:43 AM 73.9°F23.3°C 69.8°F21.0°C 87% 1.5 mph W2.4 kmh W 8.0 mph12.9 kmh 30.07 in1018.3 mb 0.00 in0.0 mm 0.00 in0.0 mm 0.00 in0.0 mm
08:48 AM 74.6°F23.7°C 70.2°F21.2°C 86% 2.7 mph WSW4.3 kmh WSW 8.0 mph12.9 kmh 30.07 in1018.3 mb 0.00 in0.0 mm 0.00 in0.0 mm 0.00 in0.0 mm
08:53 AM 75.0°F23.9°C 69.9°F21.1°C 84% 2.6 mph WNW4.2 kmh WNW 8.0 mph12.9 kmh 30.07 in1018.3 mb 0.00 in0.0 mm 0.00 in0.0 mm 0.00 in0.0 mm
08:58 AM 75.3°F24.1°C 69.8°F21.0°C 83% 3.1 mph WNW5.0 kmh WNW 6.0 mph9.7 kmh 30.07 in1018.3 mb 0.00 in0.0 mm 0.00 in0.0 mm 0.00 in0.0 mm
09:03 AM 75.5°F24.2°C 70.0°F21.1°C 83% 2.9 mph WNW4.7 kmh WNW 7.0 mph11.3 kmh 30.07 in1018.3 mb 0.00 in0.0 mm 0.00 in0.0 mm 0.00 in0.0 mm
09:08 AM 76.0°F24.4°C 70.5°F21.4°C 83% 1.0 mph W1.6 kmh W 7.0 mph11.3 kmh 30.07 in1018.3 mb 0.00 in0.0 mm 0.00 in0.0 mm 0.00 in0.0 mm
09:13 AM 76.6°F24.8°C 70.8°F21.6°C 82% 1.7 mph W2.7 kmh W 7.0 mph11.3 kmh 30.07 in1018.3 mb 0.00 in0.0 mm 0.00 in0.0 mm 0.00 in0.0 mm
09:18 AM 76.8°F24.9°C 70.5°F21.4°C 81% 2.8 mph WNW4.5 kmh WNW 7.0 mph11.3 kmh 30.07 in1018.3 mb 0.00 in0.0 mm 0.00 in0.0 mm 0.00 in0.0 mm
09:22 AM 77.3°F25.2°C 71.0°F21.7°C 81% 1.4 mph NW2.3 kmh NW 7.0 mph11.3 kmh 30.07 in1018.3 mb 0.00 in0.0 mm 0.00 in0.0 mm 0.00 in0.0 mm
09:27 AM 77.5°F25.3°C 70.9°F21.6°C 80% 1.8 mph W2.9 kmh W 7.0 mph11.3 kmh 30.08 in1018.6 mb 0.00 in0.0 mm 0.00 in0.0 mm 0.00 in0.0 mm
09:32 AM 77.6°F25.3°C 70.7°F21.5°C 79% 3.5 mph WNW5.6 kmh WNW 7.0 mph11.3 kmh 30.08 in1018.6 mb 0.00 in0.0 mm 0.00 in0.0 mm 0.00 in0.0 mm
09:37 AM 78.0°F25.6°C 71.1°F21.7°C 79% 3.2 mph W5.1 kmh W 7.0 mph11.3 kmh 30.08 in1018.6 mb 0.00 in0.0 mm 0.00 in0.0 mm 0.00 in0.0 mm
09:42 AM 78.4°F25.8°C 70.7°F21.5°C 77% 2.3 mph NW3.7 kmh NW 7.0 mph11.3 kmh 30.08 in1018.6 mb 0.00 in0.0 mm 0.00 in0.0 mm 0.00 in0.0 mm
09:47 AM 78.7°F25.9°C 71.0°F21.7°C 77% 2.7 mph W4.3 kmh W 7.0 mph11.3 kmh 30.08 in1018.6 mb 0.00 in0.0 mm 0.00 in0.0 mm 0.00 in0.0 mm
09:53 AM 78.8°F26.0°C 71.1°F21.7°C 77% 3.8 mph W6.1 kmh W 8.0 mph12.9 kmh 30.08 in1018.6 mb 0.00 in0.0 mm 0.00 in0.0 mm 0.00 in0.0 mm
09:57 AM 79.1°F26.2°C 71.4°F21.9°C 77% 3.7 mph WNW6.0 kmh WNW 8.0 mph12.9 kmh 30.08 in1018.6 mb 0.00 in0.0 mm 0.00 in0.0 mm 0.00 in0.0 mm
10:03 AM 79.4°F26.3°C 71.7°F22.1°C 77% 3.1 mph WNW5.0 kmh WNW 8.0 mph12.9 kmh 30.08 in1018.6 mb 0.00 in0.0 mm 0.00 in0.0 mm 0.00 in0.0 mm
10:07 AM 79.7°F26.5°C 71.6°F22.0°C 76% 5.4 mph WNW8.7 kmh WNW 10.0 mph16.1 kmh 30.08 in1018.6 mb 0.00 in0.0 mm 0.00 in0.0 mm 0.00 in0.0 mm
10:13 AM 79.9°F26.6°C 71.7°F22.1°C 76% 5.8 mph WNW9.3 kmh WNW 13.0 mph20.9 kmh 30.08 in1018.6 mb 0.00 in0.0 mm 0.00 in0.0 mm 0.00 in0.0 mm
10:18 AM 79.9°F26.6°C 71.7°F22.1°C 76% 5.3 mph WNW8.5 kmh WNW 13.0 mph20.9 kmh 30.08 in1018.6 mb 0.00 in0.0 mm 0.00 in0.0 mm 0.00 in0.0 mm
10:23 AM 79.9°F26.6°C 71.8°F22.1°C 76% 5.4 mph WNW8.7 kmh WNW 13.0 mph20.9 kmh 30.08 in1018.6 mb 0.00 in0.0 mm 0.00 in0.0 mm 0.00 in0.0 mm
10:28 AM 80.1°F26.7°C 72.4°F22.4°C 77% 3.5 mph WNW5.6 kmh WNW 13.0 mph20.9 kmh 30.07 in1018.3 mb 0.00 in0.0 mm 0.00 in0.0 mm 0.00 in0.0 mm
10:33 AM 80.1°F26.7°C 72.0°F22.2°C 76% 3.4 mph NW5.5 kmh NW 12.0 mph19.3 kmh 30.08 in1018.6 mb 0.00 in0.0 mm 0.00 in0.0 mm 0.00 in0.0 mm
10:38 AM 80.2°F26.8°C 71.7°F22.1°C 75% 4.8 mph W7.7 kmh W 12.0 mph19.3 kmh 30.07 in1018.3 mb 0.00 in0.0 mm 0.00 in0.0 mm 0.00 in0.0 mm
10:43 AM 80.6°F27.0°C 72.5°F22.5°C 76% 4.9 mph WNW7.9 kmh WNW 12.0 mph19.3 kmh 30.07 in1018.3 mb 0.00 in0.0 mm 0.00 in0.0 mm 0.00 in0.0 mm
10:48 AM 81.0°F27.2°C 72.5°F22.5°C 75% 3.6 mph W5.8 kmh W 12.0 mph19.3 kmh 30.07 in1018.3 mb 0.00 in0.0 mm 0.00 in0.0 mm 0.00 in0.0 mm
10:53 AM 81.0°F27.2°C 72.7°F22.6°C 76% 5.7 mph WNW9.2 kmh WNW 12.0 mph19.3 kmh 30.08 in1018.6 mb 0.00 in0.0 mm 0.00 in0.0 mm 0.00 in0.0 mm
10:58 AM 81.2°F27.3°C 72.9°F22.7°C 76% 4.0 mph W6.4 kmh W 12.0 mph19.3 kmh 30.08 in1018.6 mb 0.00 in0.0 mm 0.00 in0.0 mm 0.00 in0.0 mm
11:03 AM 81.5°F27.5°C 73.4°F23.0°C 76% 5.1 mph WNW8.2 kmh WNW 12.0 mph19.3 kmh 30.07 in1018.3 mb 0.00 in0.0 mm 0.00 in0.0 mm 0.00 in0.0 mm
11:08 AM 81.9°F27.7°C 73.8°F23.2°C 76% 2.6 mph W4.2 kmh W 12.0 mph19.3 kmh 30.08 in1018.6 mb 0.00 in0.0 mm 0.00 in0.0 mm 0.00 in0.0 mm
11:13 AM 82.3°F27.9°C 73.8°F23.2°C 75% 5.2 mph WNW8.4 kmh WNW 12.0 mph19.3 kmh 30.08 in1018.6 mb 0.00 in0.0 mm 0.00 in0.0 mm 0.00 in0.0 mm
11:18 AM 82.8°F28.2°C 74.6°F23.7°C 76% 2.5 mph NW4.0 kmh NW 11.0 mph17.7 kmh 30.08 in1018.6 mb 0.00 in0.0 mm 0.00 in0.0 mm 0.00 in0.0 mm
11:23 AM 83.4°F28.6°C 74.4°F23.6°C 74% 3.1 mph WNW5.0 kmh WNW 11.0 mph17.7 kmh 30.08 in1018.6 mb 0.00 in0.0 mm 0.00 in0.0 mm 0.00 in0.0 mm
11:28 AM 83.5°F28.6°C 74.1°F23.4°C 73% 5.2 mph WNW8.4 kmh WNW 10.0 mph16.1 kmh 30.08 in1018.6 mb 0.00 in0.0 mm 0.00 in0.0 mm 0.00 in0.0 mm
11:33 AM 83.3°F28.5°C 74.1°F23.4°C 74% 4.2 mph WNW6.8 kmh WNW 10.0 mph16.1 kmh 30.07 in1018.3 mb 0.00 in0.0 mm 0.00 in0.0 mm 0.00 in0.0 mm
11:38 AM 83.6°F28.7°C 74.2°F23.4°C 73% 3.2 mph NNW5.1 kmh NNW 10.0 mph16.1 kmh 30.07 in1018.3 mb 0.00 in0.0 mm 0.00 in0.0 mm 0.00 in0.0 mm
11:43 AM 84.2°F29.0°C 74.8°F23.8°C 73% 3.6 mph WNW5.8 kmh WNW 10.0 mph16.1 kmh 30.07 in1018.3 mb 0.00 in0.0 mm 0.00 in0.0 mm 0.00 in0.0 mm
11:48 AM 84.3°F29.1°C 75.3°F24.1°C 74% 2.6 mph W4.2 kmh W 10.0 mph16.1 kmh 30.07 in1018.3 mb 0.00 in0.0 mm 0.00 in0.0 mm 0.00 in0.0 mm
11:53 AM 85.1°F29.5°C 75.7°F24.3°C 73% 1.7 mph WNW2.7 kmh WNW 9.0 mph14.5 kmh 30.07 in1018.3 mb 0.00 in0.0 mm 0.00 in0.0 mm 0.00 in0.0 mm
11:58 AM 84.9°F29.4°C 75.1°F23.9°C 72% 3.1 mph WNW5.0 kmh WNW 9.0 mph14.5 kmh 30.07 in1018.3 mb 0.00 in0.0 mm 0.00 in0.0 mm 0.00 in0.0 mm
12:03 PM 85.0°F29.4°C 75.4°F24.1°C 73% 4.5 mph W7.2 kmh W 9.0 mph14.5 kmh 30.07 in1018.3 mb 0.00 in0.0 mm 0.00 in0.0 mm 0.00 in0.0 mm
12:08 PM 85.1°F29.5°C 75.3°F24.1°C 72% 4.9 mph W7.9 kmh W 9.0 mph14.5 kmh 30.07 in1018.3 mb 0.00 in0.0 mm 0.00 in0.0 mm 0.00 in0.0 mm
12:13 PM 85.2°F29.6°C 75.4°F24.1°C 72% 1.9 mph W3.1 kmh W 9.0 mph14.5 kmh 30.07 in1018.3 mb 0.00 in0.0 mm 0.00 in0.0 mm 0.00 in0.0 mm
12:18 PM 85.6°F29.8°C 75.8°F24.3°C 72% 2.4 mph WSW3.9 kmh WSW 9.0 mph14.5 kmh 30.07 in1018.3 mb 0.00 in0.0 mm 0.00 in0.0 mm 0.00 in0.0 mm
12:39 PM 86.6°F30.3°C 76.7°F24.8°C 72% 5.0 mph W8.0 kmh W 8.0 mph12.9 kmh 30.07 in1018.3 mb 0.00 in0.0 mm 0.00 in0.0 mm 0.00 in0.0 mm
12:44 PM 86.5°F30.3°C 77.0°F25.0°C 73% 2.9 mph WSW4.7 kmh WSW 9.0 mph14.5 kmh 30.07 in1018.3 mb 0.00 in0.0 mm 0.00 in0.0 mm 0.00 in0.0 mm
12:49 PM 86.6°F30.3°C 76.3°F24.6°C 71% 2.9 mph WNW4.7 kmh WNW 9.0 mph14.5 kmh 30.07 in1018.3 mb 0.00 in0.0 mm 0.00 in0.0 mm 0.00 in0.0 mm
12:54 PM 86.4°F30.2°C 76.1°F24.5°C 71% 3.3 mph WSW5.3 kmh WSW 9.0 mph14.5 kmh 30.06 in1017.9 mb 0.00 in0.0 mm 0.00 in0.0 mm 0.00 in0.0 mm
12:59 PM 86.4°F30.2°C 76.5°F24.7°C 72% 1.3 mph NW2.1 kmh NW 8.0 mph12.9 kmh 30.06 in1017.9 mb 0.00 in0.0 mm 0.00 in0.0 mm 0.00 in0.0 mm
01:05 PM 86.1°F30.1°C 75.6°F24.2°C 71% 5.2 mph WNW8.4 kmh WNW 11.0 mph17.7 kmh 30.06 in1017.9 mb 0.00 in0.0 mm 0.00 in0.0 mm 0.00 in0.0 mm
01:10 PM 86.2°F30.1°C 76.3°F24.6°C 72% 3.5 mph WSW5.6 kmh WSW 11.0 mph17.7 kmh 30.05 in1017.6 mb 0.00 in0.0 mm 0.00 in0.0 mm 0.00 in0.0 mm
01:15 PM 87.5°F30.8°C 77.2°F25.1°C 71% 1.6 mph N2.6 kmh N 11.0 mph17.7 kmh 30.05 in1017.6 mb 0.00 in0.0 mm 0.00 in0.0 mm 0.00 in0.0 mm
01:20 PM 87.8°F31.0°C 76.2°F24.6°C 68% 2.3 mph WNW3.7 kmh WNW 11.0 mph17.7 kmh 30.05 in1017.6 mb 0.00 in0.0 mm 0.00 in0.0 mm 0.00 in0.0 mm
01:25 PM 87.5°F30.8°C 76.8°F24.9°C 70% 2.6 mph W4.2 kmh W 8.0 mph12.9 kmh 30.04 in1017.3 mb 0.00 in0.0 mm 0.00 in0.0 mm 0.00 in0.0 mm
01:30 PM 87.4°F30.8°C 77.1°F25.1°C 71% 1.6 mph NNW2.6 kmh NNW 6.0 mph9.7 kmh 30.05 in1017.6 mb 0.00 in0.0 mm 0.00 in0.0 mm 0.00 in0.0 mm
01:35 PM 87.8°F31.0°C 76.2°F24.6°C 68% 2.6 mph NW4.2 kmh NW 7.0 mph11.3 kmh 30.05 in1017.6 mb 0.00 in0.0 mm 0.00 in0.0 mm 0.00 in0.0 mm
01:40 PM 87.8°F31.0°C 76.6°F24.8°C 69% 1.1 mph WSW1.8 kmh WSW 7.0 mph11.3 kmh 30.04 in1017.3 mb 0.00 in0.0 mm 0.00 in0.0 mm 0.00 in0.0 mm
01:45 PM 87.5°F30.8°C 76.8°F24.9°C 70% 2.4 mph W3.9 kmh W 7.0 mph11.3 kmh 30.04 in1017.3 mb 0.00 in0.0 mm 0.00 in0.0 mm 0.00 in0.0 mm
01:50 PM 87.2°F30.7°C 76.5°F24.7°C 70% 1.8 mph W2.9 kmh W 7.0 mph11.3 kmh 30.04 in1017.3 mb 0.00 in0.0 mm 0.00 in0.0 mm 0.00 in0.0 mm
01:55 PM 88.1°F31.2°C 76.9°F24.9°C 69% 2.7 mph NNW4.3 kmh NNW 6.0 mph9.7 kmh 30.03 in1016.9 mb 0.00 in0.0 mm 0.00 in0.0 mm 0.00 in0.0 mm
02:00 PM 87.7°F30.9°C 75.8°F24.3°C 68% 1.4 mph WNW2.3 kmh WNW 8.0 mph12.9 kmh 30.03 in1016.9 mb 0.00 in0.0 mm 0.00 in0.0 mm 0.00 in0.0 mm
02:05 PM 87.6°F30.9°C 75.7°F24.3°C 68% 3.9 mph NW6.3 kmh NW 8.0 mph12.9 kmh 30.02 in1016.6 mb 0.00 in0.0 mm 0.00 in0.0 mm 0.00 in0.0 mm
02:10 PM 87.7°F30.9°C 76.5°F24.7°C 69% 2.3 mph WNW3.7 kmh WNW 8.0 mph12.9 kmh 30.02 in1016.6 mb 0.00 in0.0 mm 0.00 in0.0 mm 0.00 in0.0 mm
02:15 PM 87.9°F31.1°C 76.3°F24.6°C 68% 3.1 mph WNW5.0 kmh WNW 8.0 mph12.9 kmh 30.02 in1016.6 mb 0.00 in0.0 mm 0.00 in0.0 mm 0.00 in0.0 mm
02:20 PM 87.9°F31.1°C 76.7°F24.8°C 69% 4.0 mph NW6.4 kmh NW 9.0 mph14.5 kmh 30.02 in1016.6 mb 0.00 in0.0 mm 0.00 in0.0 mm 0.00 in0.0 mm
02:25 PM 87.9°F31.1°C 76.3°F24.6°C 68% 3.1 mph W5.0 kmh W 9.0 mph14.5 kmh 30.02 in1016.6 mb 0.00 in0.0 mm 0.00 in0.0 mm 0.00 in0.0 mm
02:30 PM 87.8°F31.0°C 75.8°F24.3°C 67% 5.1 mph NW8.2 kmh NW 9.0 mph14.5 kmh 30.02 in1016.6 mb 0.00 in0.0 mm 0.00 in0.0 mm 0.00 in0.0 mm
02:35 PM 87.5°F30.8°C 76.3°F24.6°C 69% 3.7 mph WNW6.0 kmh WNW 9.0 mph14.5 kmh 30.02 in1016.6 mb 0.00 in0.0 mm 0.00 in0.0 mm 0.00 in0.0 mm
02:40 PM 87.5°F30.8°C 77.2°F25.1°C 71% 2.5 mph W4.0 kmh W 9.0 mph14.5 kmh 30.03 in1016.9 mb 0.00 in0.0 mm 0.00 in0.0 mm 0.00 in0.0 mm
02:45 PM 87.1°F30.6°C 76.8°F24.9°C 71% 3.4 mph WSW5.5 kmh WSW 12.0 mph19.3 kmh 30.03 in1016.9 mb 0.00 in0.0 mm 0.00 in0.0 mm 0.00 in0.0 mm
02:50 PM 85.1°F29.5°C 72.3°F22.4°C 65% 7.1 mph SW11.4 kmh SW 20.0 mph32.2 kmh 30.04 in1017.3 mb 0.00 in0.0 mm 0.00 in0.0 mm 0.00 in0.0 mm
02:55 PM 82.4°F28.0°C 69.9°F21.1°C 66% 6.8 mph SW10.9 kmh SW 20.0 mph32.2 kmh 30.04 in1017.3 mb 0.00 in0.0 mm 0.00 in0.0 mm 0.00 in0.0 mm
03:00 PM 80.8°F27.1°C 69.9°F21.1°C 69% 7.5 mph SW12.1 kmh SW 21.0 mph33.8 kmh 30.02 in1016.6 mb 0.00 in0.0 mm 0.00 in0.0 mm 0.00 in0.0 mm
03:05 PM 79.3°F26.3°C 70.1°F21.2°C 73% 7.1 mph SW11.4 kmh SW 23.0 mph37.0 kmh 30.02 in1016.6 mb 0.00 in0.0 mm 0.00 in0.0 mm 0.00 in0.0 mm
03:10 PM 78.0°F25.6°C 69.8°F21.0°C 76% 4.9 mph SSW7.9 kmh SSW 23.0 mph37.0 kmh 30.04 in1017.3 mb 0.00 in0.0 mm 0.00 in0.0 mm 0.00 in0.0 mm
03:15 PM 77.0°F25.0°C 70.1°F21.2°C 79% 6.1 mph SSW9.8 kmh SSW 23.0 mph37.0 kmh 30.05 in1017.6 mb 0.01 in0.3 mm 0.12 in3.0 mm 0.01 in0.3 mm
03:20 PM 75.1°F23.9°C 69.6°F20.9°C 83% 3.9 mph SE6.3 kmh SE 23.0 mph37.0 kmh 30.04 in1017.3 mb 0.04 in1.0 mm 0.36 in9.1 mm 0.04 in1.0 mm
03:25 PM 74.1°F23.4°C 69.7°F20.9°C 86% 1.6 mph SE2.6 kmh SE 18.0 mph29.0 kmh 30.05 in1017.6 mb 0.04 in1.0 mm 0.00 in0.0 mm 0.04 in1.0 mm
03:30 PM 73.5°F23.1°C 69.4°F20.8°C 87% 1.0 mph SW1.6 kmh SW 18.0 mph29.0 kmh 30.04 in1017.3 mb 0.04 in1.0 mm 0.00 in0.0 mm 0.04 in1.0 mm
03:35 PM 73.2°F22.9°C 69.4°F20.8°C 88% 1.6 mph ESE2.6 kmh ESE 9.0 mph14.5 kmh 30.03 in1016.9 mb 0.04 in1.0 mm 0.00 in0.0 mm 0.04 in1.0 mm
03:40 PM 72.8°F22.7°C 69.4°F20.8°C 89% 2.4 mph E3.9 kmh E 5.0 mph8.0 kmh 30.03 in1016.9 mb 0.04 in1.0 mm 0.00 in0.0 mm 0.04 in1.0 mm
03:45 PM 72.8°F22.7°C 69.7°F20.9°C 90% 1.2 mph E1.9 kmh E 5.0 mph8.0 kmh 30.03 in1016.9 mb 0.05 in1.3 mm 0.12 in3.0 mm 0.05 in1.3 mm
03:50 PM 72.6°F22.6°C 69.5°F20.8°C 90% 4.7 mph SE7.6 kmh SE 7.0 mph11.3 kmh 30.03 in1016.9 mb 0.05 in1.3 mm 0.00 in0.0 mm 0.05 in1.3 mm
03:55 PM 72.2°F22.3°C 69.4°F20.8°C 91% 4.1 mph SE6.6 kmh SE 8.0 mph12.9 kmh 30.02 in1016.6 mb 0.05 in1.3 mm 0.00 in0.0 mm 0.05 in1.3 mm
04:00 PM 72.0°F22.2°C 69.5°F20.8°C 92% 3.0 mph SE4.8 kmh SE 8.0 mph12.9 kmh 30.02 in1016.6 mb 0.05 in1.3 mm 0.00 in0.0 mm 0.05 in1.3 mm
04:05 PM 72.1°F22.3°C 69.6°F20.9°C 92% 1.0 mph E1.6 kmh E 8.0 mph12.9 kmh 30.03 in1016.9 mb 0.05 in1.3 mm 0.00 in0.0 mm 0.05 in1.3 mm
04:10 PM 72.2°F22.3°C 69.7°F20.9°C 92% 1.0 mph ENE1.6 kmh ENE 8.0 mph12.9 kmh 30.03 in1016.9 mb 0.05 in1.3 mm 0.00 in0.0 mm 0.05 in1.3 mm
04:15 PM 72.4°F22.4°C 69.9°F21.1°C 92% Calm Calm 7.0 mph11.3 kmh 30.03 in1016.9 mb 0.04 in1.0 mm 0.00 in0.0 mm 0.05 in1.3 mm
04:20 PM 72.6°F22.6°C 70.4°F21.3°C 93% Calm Calm 2.0 mph3.2 kmh 30.03 in1016.9 mb 0.01 in0.3 mm 0.00 in0.0 mm 0.05 in1.3 mm
04:25 PM 72.8°F22.7°C 70.6°F21.4°C 93% Calm Calm 1.0 mph1.6 kmh 30.03 in1016.9 mb 0.01 in0.3 mm 0.00 in0.0 mm 0.05 in1.3 mm
04:30 PM 72.8°F22.7°C 70.6°F21.4°C 93% 1.0 mph SW1.6 kmh SW 1.0 mph1.6 kmh 30.03 in1016.9 mb 0.01 in0.3 mm 0.00 in0.0 mm 0.05 in1.3 mm
04:35 PM 72.9°F22.7°C 70.7°F21.5°C 93% Calm Calm 1.0 mph1.6 kmh 30.03 in1016.9 mb 0.01 in0.3 mm 0.00 in0.0 mm 0.05 in1.3 mm
04:40 PM 73.0°F22.8°C 70.5°F21.4°C 92% Calm Calm 2.0 mph3.2 kmh 30.03 in1016.9 mb 0.01 in0.3 mm 0.00 in0.0 mm 0.05 in1.3 mm
04:45 PM 73.4°F23.0°C 70.9°F21.6°C 92% Calm Calm 2.0 mph3.2 kmh 30.03 in1016.9 mb 0.00 in0.0 mm 0.00 in0.0 mm 0.05 in1.3 mm
04:50 PM 73.6°F23.1°C 71.1°F21.7°C 92% 1.0 mph W1.6 kmh W 2.0 mph3.2 kmh 30.03 in1016.9 mb 0.00 in0.0 mm 0.00 in0.0 mm 0.05 in1.3 mm
04:55 PM 73.9°F23.3°C 71.4°F21.9°C 92% Calm Calm 2.0 mph3.2 kmh 30.02 in1016.6 mb 0.00 in0.0 mm 0.00 in0.0 mm 0.05 in1.3 mm
05:00 PM 74.1°F23.4°C 71.9°F22.2°C 93% Calm Calm 1.0 mph1.6 kmh 30.02 in1016.6 mb 0.00 in0.0 mm 0.00 in0.0 mm 0.05 in1.3 mm
05:05 PM 74.1°F23.4°C 71.3°F21.8°C 91% Calm Calm 1.0 mph1.6 kmh 30.02 in1016.6 mb 0.00 in0.0 mm 0.00 in0.0 mm 0.05 in1.3 mm
05:10 PM 74.3°F23.5°C 71.5°F21.9°C 91% 1.0 mph W1.6 kmh W 1.0 mph1.6 kmh 30.03 in1016.9 mb 0.00 in0.0 mm 0.00 in0.0 mm 0.05 in1.3 mm
05:15 PM 74.4°F23.6°C 71.3°F21.8°C 90% 1.0 mph WSW1.6 kmh WSW 2.0 mph3.2 kmh 30.02 in1016.6 mb 0.00 in0.0 mm 0.00 in0.0 mm 0.05 in1.3 mm
05:20 PM 74.6°F23.7°C 71.8°F22.1°C 91% 1.0 mph SW1.6 kmh SW 2.0 mph3.2 kmh 30.02 in1016.6 mb 0.00 in0.0 mm 0.00 in0.0 mm 0.05 in1.3 mm
05:25 PM 74.4°F23.6°C 71.6°F22.0°C 91% 1.7 mph WSW2.7 kmh WSW 4.0 mph6.4 kmh 30.02 in1016.6 mb 0.00 in0.0 mm 0.00 in0.0 mm 0.05 in1.3 mm
05:30 PM 74.2°F23.4°C 71.4°F21.9°C 91% 2.0 mph WSW3.2 kmh WSW 4.0 mph6.4 kmh 30.02 in1016.6 mb 0.00 in0.0 mm 0.00 in0.0 mm 0.05 in1.3 mm
05:35 PM 74.4°F23.6°C 71.9°F22.2°C 92% 1.0 mph SW1.6 kmh SW 4.0 mph6.4 kmh 30.01 in1016.3 mb 0.00 in0.0 mm 0.00 in0.0 mm 0.05 in1.3 mm
05:40 PM 74.6°F23.7°C 72.1°F22.3°C 92% Calm Calm 4.0 mph6.4 kmh 30.01 in1016.3 mb 0.00 in0.0 mm 0.00 in0.0 mm 0.05 in1.3 mm
05:45 PM 74.9°F23.8°C 72.4°F22.4°C 92% 1.0 mph WSW1.6 kmh WSW 4.0 mph6.4 kmh 30.01 in1016.3 mb 0.00 in0.0 mm 0.00 in0.0 mm 0.05 in1.3 mm
05:50 PM 75.2°F24.0°C 72.1°F22.3°C 90% 1.0 mph W1.6 kmh W 2.0 mph3.2 kmh 30.01 in1016.3 mb 0.00 in0.0 mm 0.00 in0.0 mm 0.05 in1.3 mm
05:55 PM 75.7°F24.3°C 72.5°F22.5°C 90% Calm Calm 2.0 mph3.2 kmh 30.01 in1016.3 mb 0.00 in0.0 mm 0.00 in0.0 mm 0.05 in1.3 mm
06:00 PM 76.3°F24.6°C 72.5°F22.5°C 88% Calm Calm 2.0 mph3.2 kmh 30.01 in1016.3 mb 0.00 in0.0 mm 0.00 in0.0 mm 0.05 in1.3 mm
06:05 PM 76.8°F24.9°C 73.0°F22.8°C 88% Calm Calm 2.0 mph3.2 kmh 30.00 in1015.9 mb 0.00 in0.0 mm 0.00 in0.0 mm 0.05 in1.3 mm
06:10 PM 77.1°F25.1°C 73.3°F22.9°C 88% 1.0 mph WSW1.6 kmh WSW 1.0 mph1.6 kmh 30.00 in1015.9 mb 0.00 in0.0 mm 0.00 in0.0 mm 0.05 in1.3 mm
06:15 PM 77.2°F25.1°C 73.4°F23.0°C 88% 1.0 mph SW1.6 kmh SW 1.0 mph1.6 kmh 29.99 in1015.6 mb 0.00 in0.0 mm 0.00 in0.0 mm 0.05 in1.3 mm
06:20 PM 77.0°F25.0°C 73.5°F23.1°C 89% 1.0 mph SW1.6 kmh SW 2.0 mph3.2 kmh 29.99 in1015.6 mb 0.00 in0.0 mm 0.00 in0.0 mm 0.05 in1.3 mm
06:25 PM 77.1°F25.1°C 73.9°F23.3°C 90% Calm Calm 2.0 mph3.2 kmh 29.99 in1015.6 mb 0.00 in0.0 mm 0.00 in0.0 mm 0.05 in1.3 mm
06:30 PM 77.2°F25.1°C 74.0°F23.3°C 90% Calm Calm 2.0 mph3.2 kmh 29.99 in1015.6 mb 0.00 in0.0 mm 0.00 in0.0 mm 0.05 in1.3 mm
06:35 PM 77.3°F25.2°C 74.1°F23.4°C 90% Calm Calm 1.0 mph1.6 kmh 29.99 in1015.6 mb 0.00 in0.0 mm 0.00 in0.0 mm 0.05 in1.3 mm
06:40 PM 77.1°F25.1°C 73.3°F22.9°C 88% 1.0 mph SW1.6 kmh SW 1.0 mph1.6 kmh 29.99 in1015.6 mb 0.00 in0.0 mm 0.00 in0.0 mm 0.05 in1.3 mm
06:45 PM 77.1°F25.1°C 73.0°F22.8°C 87% 1.0 mph SW1.6 kmh SW 1.0 mph1.6 kmh 29.99 in1015.6 mb 0.00 in0.0 mm 0.00 in0.0 mm 0.05 in1.3 mm
06:50 PM 77.1°F25.1°C 73.0°F22.8°C 87% Calm Calm 1.0 mph1.6 kmh 29.99 in1015.6 mb 0.00 in0.0 mm 0.00 in0.0 mm 0.05 in1.3 mm
06:55 PM 77.2°F25.1°C 73.4°F23.0°C 88% 1.0 mph SW1.6 kmh SW 1.0 mph1.6 kmh 29.99 in1015.6 mb 0.00 in0.0 mm 0.00 in0.0 mm 0.05 in1.3 mm
07:00 PM 77.3°F25.2°C 73.5°F23.1°C 88% Calm Calm 1.0 mph1.6 kmh 30.00 in1015.9 mb 0.00 in0.0 mm 0.00 in0.0 mm 0.05 in1.3 mm
07:05 PM 77.4°F25.2°C 73.9°F23.3°C 89% Calm Calm 1.0 mph1.6 kmh 30.00 in1015.9 mb 0.00 in0.0 mm 0.00 in0.0 mm 0.05 in1.3 mm
07:10 PM 77.5°F25.3°C 74.0°F23.3°C 89% Calm Calm 1.0 mph1.6 kmh 30.00 in1015.9 mb 0.00 in0.0 mm 0.00 in0.0 mm 0.05 in1.3 mm
07:15 PM 77.7°F25.4°C 73.9°F23.3°C 88% Calm Calm 1.0 mph1.6 kmh 30.00 in1015.9 mb 0.00 in0.0 mm 0.00 in0.0 mm 0.05 in1.3 mm
07:20 PM 77.8°F25.4°C 74.0°F23.3°C 88% 1.1 mph ESE1.8 kmh ESE 2.0 mph3.2 kmh 30.00 in1015.9 mb 0.00 in0.0 mm 0.00 in0.0 mm 0.05 in1.3 mm
07:25 PM 77.5°F25.3°C 73.7°F23.2°C 88% 1.2 mph SE1.9 kmh SE 3.0 mph4.8 kmh 30.00 in1015.9 mb 0.00 in0.0 mm 0.00 in0.0 mm 0.05 in1.3 mm
07:30 PM 77.2°F25.1°C 73.4°F23.0°C 88% 1.5 mph SE2.4 kmh SE 3.0 mph4.8 kmh 30.00 in1015.9 mb 0.00 in0.0 mm 0.00 in0.0 mm 0.05 in1.3 mm
07:35 PM 77.2°F25.1°C 73.4°F23.0°C 88% 1.3 mph ESE2.1 kmh ESE 3.0 mph4.8 kmh 30.00 in1015.9 mb 0.00 in0.0 mm 0.00 in0.0 mm 0.05 in1.3 mm
07:40 PM 77.1°F25.1°C 73.6°F23.1°C 89% 2.9 mph E4.7 kmh E 5.0 mph8.0 kmh 30.00 in1015.9 mb 0.00 in0.0 mm 0.00 in0.0 mm 0.05 in1.3 mm
07:45 PM 76.8°F24.9°C 74.0°F23.3°C 91% 2.4 mph SE3.9 kmh SE 5.0 mph8.0 kmh 30.00 in1015.9 mb 0.00 in0.0 mm 0.00 in0.0 mm 0.05 in1.3 mm
07:50 PM 76.6°F24.8°C 74.1°F23.4°C 92% 1.5 mph E2.4 kmh E 5.0 mph8.0 kmh 30.00 in1015.9 mb 0.00 in0.0 mm 0.00 in0.0 mm 0.05 in1.3 mm
07:55 PM 76.4°F24.7°C 73.9°F23.3°C 92% 2.3 mph E3.7 kmh E 7.0 mph11.3 kmh 30.00 in1015.9 mb 0.00 in0.0 mm 0.00 in0.0 mm 0.05 in1.3 mm
08:00 PM 76.1°F24.5°C 73.9°F23.3°C 93% 2.1 mph SE3.4 kmh SE 7.0 mph11.3 kmh 30.00 in1015.9 mb 0.00 in0.0 mm 0.00 in0.0 mm 0.05 in1.3 mm
08:06 PM 75.7°F24.3°C 73.2°F22.9°C 92% 2.8 mph E4.5 kmh E 7.0 mph11.3 kmh 30.01 in1016.3 mb 0.00 in0.0 mm 0.00 in0.0 mm 0.05 in1.3 mm
08:11 PM 75.5°F24.2°C 73.0°F22.8°C 92% 3.0 mph ESE4.8 kmh ESE 6.0 mph9.7 kmh 30.01 in1016.3 mb 0.00 in0.0 mm 0.00 in0.0 mm 0.05 in1.3 mm
08:16 PM 75.2°F24.0°C 72.7°F22.6°C 92% 1.9 mph SE3.1 kmh SE 7.0 mph11.3 kmh 30.01 in1016.3 mb 0.00 in0.0 mm 0.00 in0.0 mm 0.05 in1.3 mm
08:21 PM 74.7°F23.7°C 71.9°F22.2°C 91% 3.9 mph ESE6.3 kmh ESE 9.0 mph14.5 kmh 30.01 in1016.3 mb 0.00 in0.0 mm 0.00 in0.0 mm 0.05 in1.3 mm
08:26 PM 74.3°F23.5°C 71.5°F21.9°C 91% 4.0 mph SE6.4 kmh SE 9.0 mph14.5 kmh 30.01 in1016.3 mb 0.00 in0.0 mm 0.00 in0.0 mm 0.05 in1.3 mm
08:31 PM 74.1°F23.4°C 71.6°F22.0°C 92% 3.3 mph SE5.3 kmh SE 9.0 mph14.5 kmh 30.01 in1016.3 mb 0.00 in0.0 mm 0.00 in0.0 mm 0.05 in1.3 mm
08:35 PM 73.9°F23.3°C 71.4°F21.9°C 92% 2.4 mph SE3.9 kmh SE 9.0 mph14.5 kmh 30.01 in1016.3 mb 0.00 in0.0 mm 0.00 in0.0 mm 0.05 in1.3 mm
08:40 PM 73.9°F23.3°C 71.4°F21.9°C 92% 1.3 mph SE2.1 kmh SE 9.0 mph14.5 kmh 30.01 in1016.3 mb 0.00 in0.0 mm 0.00 in0.0 mm 0.05 in1.3 mm
08:45 PM 73.8°F23.2°C 71.0°F21.7°C 91% 2.3 mph SE3.7 kmh SE 8.0 mph12.9 kmh 30.01 in1016.3 mb 0.00 in0.0 mm 0.00 in0.0 mm 0.05 in1.3 mm
08:50 PM 73.7°F23.2°C 70.9°F21.6°C 91% 1.6 mph SE2.6 kmh SE 6.0 mph9.7 kmh 30.00 in1015.9 mb 0.00 in0.0 mm 0.00 in0.0 mm 0.05 in1.3 mm
08:55 PM 73.6°F23.1°C 71.1°F21.7°C 92% 2.2 mph S3.5 kmh S 4.0 mph6.4 kmh 30.00 in1015.9 mb 0.00 in0.0 mm 0.00 in0.0 mm 0.05 in1.3 mm
09:00 PM 73.5°F23.1°C 71.0°F21.7°C 92% 1.0 mph SE1.6 kmh SE 4.0 mph6.4 kmh 30.00 in1015.9 mb 0.00 in0.0 mm 0.00 in0.0 mm 0.05 in1.3 mm
09:05 PM 73.4°F23.0°C 70.9°F21.6°C 92% 1.7 mph SE2.7 kmh SE 4.0 mph6.4 kmh 30.00 in1015.9 mb 0.00 in0.0 mm 0.00 in0.0 mm 0.05 in1.3 mm
09:10 PM 73.2°F22.9°C 70.7°F21.5°C 92% 1.0 mph SW1.6 kmh SW 4.0 mph6.4 kmh 30.00 in1015.9 mb 0.00 in0.0 mm 0.00 in0.0 mm 0.05 in1.3 mm
09:15 PM 73.0°F22.8°C 70.8°F21.6°C 93% 1.0 mph SSE1.6 kmh SSE 4.0 mph6.4 kmh 30.00 in1015.9 mb 0.00 in0.0 mm 0.00 in0.0 mm 0.05 in1.3 mm
09:20 PM 72.9°F22.7°C 70.8°F21.6°C 93% 1.0 mph SW1.6 kmh SW 4.0 mph6.4 kmh 30.00 in1015.9 mb 0.00 in0.0 mm 0.00 in0.0 mm 0.05 in1.3 mm
09:25 PM 72.7°F22.6°C 70.6°F21.4°C 93% 1.0 mph SW1.6 kmh SW 3.0 mph4.8 kmh 30.00 in1015.9 mb 0.00 in0.0 mm 0.00 in0.0 mm 0.05 in1.3 mm
09:30 PM 72.6°F22.6°C 70.7°F21.5°C 94% 1.5 mph SSW2.4 kmh SSW 5.0 mph8.0 kmh 30.00 in1015.9 mb 0.00 in0.0 mm 0.00 in0.0 mm 0.05 in1.3 mm
09:35 PM 72.6°F22.6°C 70.7°F21.5°C 94% 1.2 mph S1.9 kmh S 5.0 mph8.0 kmh 30.00 in1015.9 mb 0.00 in0.0 mm 0.00 in0.0 mm 0.05 in1.3 mm
09:40 PM 72.5°F22.5°C 70.6°F21.4°C 94% 1.4 mph SW2.3 kmh SW 5.0 mph8.0 kmh 30.00 in1015.9 mb 0.00 in0.0 mm 0.00 in0.0 mm 0.05 in1.3 mm
09:45 PM 72.4°F22.4°C 70.5°F21.4°C 94% 1.5 mph SW2.4 kmh SW 5.0 mph8.0 kmh 30.00 in1015.9 mb 0.00 in0.0 mm 0.00 in0.0 mm 0.05 in1.3 mm
09:50 PM 72.4°F22.4°C 70.9°F21.6°C 95% 1.1 mph SW1.8 kmh SW 5.0 mph8.0 kmh 30.00 in1015.9 mb 0.00 in0.0 mm 0.00 in0.0 mm 0.05 in1.3 mm
09:55 PM 72.4°F22.4°C 70.9°F21.6°C 95% 1.4 mph SW2.3 kmh SW 6.0 mph9.7 kmh 30.00 in1015.9 mb 0.00 in0.0 mm 0.00 in0.0 mm 0.05 in1.3 mm
10:00 PM 72.3°F22.4°C 70.8°F21.6°C 95% 2.0 mph SW3.2 kmh SW 6.0 mph9.7 kmh 30.00 in1015.9 mb 0.00 in0.0 mm 0.00 in0.0 mm 0.05 in1.3 mm
10:05 PM 72.3°F22.4°C 70.8°F21.6°C 95% 1.1 mph SW1.8 kmh SW 6.0 mph9.7 kmh 29.99 in1015.6 mb 0.00 in0.0 mm 0.00 in0.0 mm 0.05 in1.3 mm
10:10 PM 72.2°F22.3°C 70.7°F21.5°C 95% 1.6 mph SW2.6 kmh SW 6.0 mph9.7 kmh 29.99 in1015.6 mb 0.00 in0.0 mm 0.00 in0.0 mm 0.05 in1.3 mm
10:15 PM 72.1°F22.3°C 70.6°F21.4°C 95% 1.0 mph WSW1.6 kmh WSW 6.0 mph9.7 kmh 29.99 in1015.6 mb 0.00 in0.0 mm 0.00 in0.0 mm 0.05 in1.3 mm
10:20 PM 72.1°F22.3°C 70.6°F21.4°C 95% 1.2 mph SSW1.9 kmh SSW 5.0 mph8.0 kmh 30.00 in1015.9 mb 0.00 in0.0 mm 0.00 in0.0 mm 0.05 in1.3 mm
10:25 PM 72.0°F22.2°C 70.5°F21.4°C 95% 1.4 mph SW2.3 kmh SW 4.0 mph6.4 kmh 30.00 in1015.9 mb 0.00 in0.0 mm 0.00 in0.0 mm 0.05 in1.3 mm
10:30 PM 71.9°F22.2°C 70.4°F21.3°C 95% 1.0 mph WSW1.6 kmh WSW 4.0 mph6.4 kmh 30.00 in1015.9 mb 0.00 in0.0 mm 0.00 in0.0 mm 0.05 in1.3 mm
10:35 PM 71.8°F22.1°C 70.3°F21.3°C 95% 1.5 mph SW2.4 kmh SW 4.0 mph6.4 kmh 30.00 in1015.9 mb 0.00 in0.0 mm 0.00 in0.0 mm 0.05 in1.3 mm
10:40 PM 71.8°F22.1°C 70.3°F21.3°C 95% 1.0 mph WSW1.6 kmh WSW 3.0 mph4.8 kmh 30.00 in1015.9 mb 0.00 in0.0 mm 0.00 in0.0 mm 0.05 in1.3 mm
10:45 PM 71.6°F22.0°C 70.1°F21.2°C 95% Calm Calm 2.0 mph3.2 kmh 30.00 in1015.9 mb 0.00 in0.0 mm 0.00 in0.0 mm 0.05 in1.3 mm
10:50 PM 71.5°F21.9°C 70.0°F21.1°C 95% Calm Calm 2.0 mph3.2 kmh 30.00 in1015.9 mb 0.00 in0.0 mm 0.00 in0.0 mm 0.05 in1.3 mm
10:55 PM 71.5°F21.9°C 70.0°F21.1°C 95% Calm Calm 2.0 mph3.2 kmh 30.00 in1015.9 mb 0.00 in0.0 mm 0.00 in0.0 mm 0.05 in1.3 mm
11:00 PM 71.5°F21.9°C 70.0°F21.1°C 95% Calm Calm 1.0 mph1.6 kmh 30.00 in1015.9 mb 0.00 in0.0 mm 0.00 in0.0 mm 0.05 in1.3 mm
11:05 PM 71.5°F21.9°C 70.0°F21.1°C 95% Calm Calm 1.0 mph1.6 kmh 29.99 in1015.6 mb 0.00 in0.0 mm 0.00 in0.0 mm 0.05 in1.3 mm
11:10 PM 71.3°F21.8°C 69.8°F21.0°C 95% Calm Calm 1.0 mph1.6 kmh 29.99 in1015.6 mb 0.00 in0.0 mm 0.00 in0.0 mm 0.05 in1.3 mm
11:15 PM 71.2°F21.8°C 69.7°F20.9°C 95% 1.0 mph SW1.6 kmh SW 1.0 mph1.6 kmh 30.00 in1015.9 mb 0.00 in0.0 mm 0.00 in0.0 mm 0.05 in1.3 mm
11:20 PM 71.2°F21.8°C 69.7°F20.9°C 95% Calm Calm 1.0 mph1.6 kmh 30.00 in1015.9 mb 0.00 in0.0 mm 0.00 in0.0 mm 0.05 in1.3 mm
11:25 PM 71.2°F21.8°C 69.4°F20.8°C 94% 1.0 mph SE1.6 kmh SE 1.0 mph1.6 kmh 30.00 in1015.9 mb 0.00 in0.0 mm 0.00 in0.0 mm 0.05 in1.3 mm
11:30 PM 71.4°F21.9°C 69.6°F20.9°C 94% 1.4 mph E2.3 kmh E 3.0 mph4.8 kmh 30.01 in1016.3 mb 0.00 in0.0 mm 0.00 in0.0 mm 0.05 in1.3 mm
11:35 PM 71.4°F21.9°C 69.6°F20.9°C 94% 1.0 mph E1.6 kmh E 3.0 mph4.8 kmh 30.01 in1016.3 mb 0.00 in0.0 mm 0.00 in0.0 mm 0.05 in1.3 mm
11:40 PM 71.5°F21.9°C 69.7°F20.9°C 94% 1.0 mph ESE1.6 kmh ESE 3.0 mph4.8 kmh 30.00 in1015.9 mb 0.00 in0.0 mm 0.00 in0.0 mm 0.05 in1.3 mm
11:45 PM 71.4°F21.9°C 69.6°F20.9°C 94% 1.0 mph ESE1.6 kmh ESE 3.0 mph4.8 kmh 30.00 in1015.9 mb 0.00 in0.0 mm 0.00 in0.0 mm 0.05 in1.3 mm
11:50 PM 71.4°F21.9°C 69.6°F20.9°C 94% 1.0 mph ESE1.6 kmh ESE 2.0 mph3.2 kmh 30.00 in1015.9 mb 0.00 in0.0 mm 0.00 in0.0 mm 0.05 in1.3 mm
11:55 PM 71.3°F21.8°C 69.5°F20.8°C 94% 1.0 mph ESE1.6 kmh ESE 2.0 mph3.2 kmh 30.00 in1015.9 mb 0.00 in0.0 mm 0.00 in0.0 mm 0.05 in1.3 mm